createdAt,value
2017-10-06T00:00:20.202Z,21.9
2017-10-06T00:02:20.305Z,21.9
2017-10-06T00:04:20.510Z,22.4
2017-10-06T00:06:20.577Z,22.4
2017-10-06T00:08:20.677Z,22.4
2017-10-06T00:10:20.887Z,21.9
2017-10-06T00:12:20.984Z,21.9
2017-10-06T00:14:21.072Z,21.9
2017-10-06T00:16:21.239Z,22.4
2017-10-06T00:18:21.384Z,22.4
2017-10-06T00:20:21.521Z,21.9
2017-10-06T00:22:21.660Z,22.4
2017-10-06T00:24:21.767Z,21.9
2017-10-06T00:26:21.924Z,21.9
2017-10-06T00:28:22.092Z,21.299999999999997
2017-10-06T00:30:22.212Z,21.9
2017-10-06T00:32:22.339Z,21.9
2017-10-06T00:34:22.443Z,20.799999999999997
2017-10-06T00:36:22.797Z,21.9
2017-10-06T00:38:22.843Z,21.9
2017-10-06T00:40:22.972Z,21.9
2017-10-06T00:42:23.216Z,21.9
2017-10-06T00:44:23.452Z,21.9
2017-10-06T00:46:23.372Z,21.9
2017-10-06T00:48:23.511Z,21.9
2017-10-06T00:50:23.630Z,21.9
2017-10-06T00:52:23.769Z,21.9
2017-10-06T00:54:23.940Z,21.9
2017-10-06T00:56:24.073Z,21.9
2017-10-06T00:58:24.202Z,21.9
2017-10-06T01:00:24.396Z,21.9
2017-10-06T01:02:24.480Z,21.9
2017-10-06T01:04:24.609Z,21.9
2017-10-06T01:06:24.696Z,21.299999999999997
2017-10-06T01:08:24.840Z,21.299999999999997
2017-10-06T01:10:25.014Z,21.299999999999997
2017-10-06T01:12:25.116Z,21.9
2017-10-06T01:14:25.237Z,22.4
2017-10-06T01:16:25.394Z,21.9
2017-10-06T01:18:25.571Z,21.9
2017-10-06T01:20:25.692Z,22.4
2017-10-06T01:22:25.850Z,22.4
2017-10-06T01:24:26.002Z,21.9
2017-10-06T01:26:26.222Z,21.299999999999997
2017-10-06T01:28:26.330Z,21.9
2017-10-06T01:30:26.606Z,21.9
2017-10-06T01:32:26.731Z,21.9
2017-10-06T01:34:26.903Z,21.9
2017-10-06T01:36:27.239Z,21.9
2017-10-06T01:38:27.359Z,21.9
2017-10-06T01:40:27.543Z,22.4
2017-10-06T01:42:27.702Z,21.9
2017-10-06T01:44:27.775Z,22.4
2017-10-06T01:46:27.963Z,21.9
2017-10-06T01:48:28.176Z,21.299999999999997
2017-10-06T01:50:28.512Z,21.299999999999997
2017-10-06T01:52:28.533Z,21.299999999999997
2017-10-06T01:54:28.654Z,21.9
2017-10-06T01:56:28.971Z,21.9
2017-10-06T01:58:29.088Z,20.799999999999997
2017-10-06T02:00:29.024Z,21.9
2017-10-06T02:02:29.259Z,21.9
2017-10-06T02:04:29.432Z,21.9
2017-10-06T02:06:29.427Z,21.299999999999997
2017-10-06T02:08:29.619Z,22.4
2017-10-06T02:10:29.710Z,21.9
2017-10-06T02:12:29.844Z,21.9
2017-10-06T02:14:30.127Z,21.9
2017-10-06T02:16:30.240Z,21.9
2017-10-06T02:18:30.441Z,20.799999999999997
2017-10-06T02:20:30.467Z,21.299999999999997
2017-10-06T02:22:30.563Z,21.299999999999997
2017-10-06T02:24:31.034Z,21.9
2017-10-06T02:26:30.839Z,21.9
2017-10-06T02:28:30.958Z,21.299999999999997
2017-10-06T02:30:31.120Z,21.9
2017-10-06T02:32:31.239Z,21.299999999999997
2017-10-06T02:34:31.432Z,21.9
2017-10-06T02:36:31.499Z,21.9
2017-10-06T02:38:31.709Z,21.9
2017-10-06T02:40:31.966Z,21.299999999999997
2017-10-06T02:42:31.967Z,21.9
2017-10-06T02:44:32.132Z,21.9
2017-10-06T02:46:32.365Z,21.9
2017-10-06T02:48:32.499Z,21.9
2017-10-06T02:50:32.536Z,21.9
2017-10-06T02:52:32.625Z,21.299999999999997
2017-10-06T02:54:32.749Z,21.299999999999997
2017-10-06T02:56:32.949Z,21.9
2017-10-06T02:58:33.005Z,21.9
2017-10-06T03:00:33.117Z,21.9
2017-10-06T03:02:33.278Z,21.299999999999997
2017-10-06T03:04:33.430Z,21.299999999999997
2017-10-06T03:06:33.517Z,21.299999999999997
2017-10-06T03:08:33.594Z,21.299999999999997
2017-10-06T03:10:33.756Z,20.799999999999997
2017-10-06T03:12:33.966Z,21.299999999999997
2017-10-06T03:14:34.069Z,20.799999999999997
2017-10-06T03:16:34.301Z,20.799999999999997
2017-10-06T03:18:34.378Z,21.299999999999997
2017-10-06T03:20:34.473Z,21.299999999999997
2017-10-06T03:22:34.636Z,20.799999999999997
2017-10-06T03:24:34.790Z,20.799999999999997
2017-10-06T03:26:34.886Z,20.799999999999997
2017-10-06T03:28:35.006Z,21.299999999999997
2017-10-06T03:30:35.136Z,20.799999999999997
2017-10-06T03:32:35.214Z,21.299999999999997
2017-10-06T03:34:35.365Z,20.799999999999997
2017-10-06T03:36:35.458Z,20.799999999999997
2017-10-06T03:38:35.581Z,21.9
2017-10-06T03:40:35.690Z,20.799999999999997
2017-10-06T03:42:35.828Z,21.299999999999997
2017-10-06T03:44:35.991Z,21.9
2017-10-06T03:46:36.298Z,20.799999999999997
2017-10-06T03:48:36.246Z,20.799999999999997
2017-10-06T03:50:36.370Z,21.299999999999997
2017-10-06T03:52:36.494Z,21.299999999999997
2017-10-06T03:54:36.618Z,20.799999999999997
2017-10-06T03:56:36.692Z,20.799999999999997
2017-10-06T03:58:36.858Z,20.799999999999997
2017-10-06T04:00:37.022Z,21.299999999999997
2017-10-06T04:02:37.057Z,20.799999999999997
2017-10-06T04:04:37.250Z,20.799999999999997
2017-10-06T04:06:37.323Z,21.299999999999997
2017-10-06T04:08:37.496Z,21.299999999999997
2017-10-06T04:10:37.605Z,20.799999999999997
2017-10-06T04:12:37.709Z,20.799999999999997
2017-10-06T04:14:37.869Z,20.799999999999997
2017-10-06T04:16:38.049Z,21.299999999999997
2017-10-06T04:18:38.268Z,20.799999999999997
2017-10-06T04:20:38.359Z,21.299999999999997
2017-10-06T04:22:38.511Z,21.299999999999997
2017-10-06T04:24:38.700Z,21.9
2017-10-06T04:26:38.792Z,21.299999999999997
2017-10-06T04:28:38.974Z,21.9
2017-10-06T04:30:39.092Z,21.9
2017-10-06T04:32:39.230Z,21.299999999999997
2017-10-06T04:34:39.389Z,21.299999999999997
2017-10-06T04:36:39.673Z,21.9
2017-10-06T04:38:39.831Z,21.9
2017-10-06T04:40:39.837Z,21.9
2017-10-06T04:42:39.982Z,21.9
2017-10-06T04:44:40.080Z,21.299999999999997
2017-10-06T04:46:40.592Z,21.9
2017-10-06T04:48:40.377Z,21.9
2017-10-06T04:50:40.629Z,22.4
2017-10-06T04:52:40.709Z,21.299999999999997
2017-10-06T04:54:41.044Z,21.9
2017-10-06T04:56:41.256Z,21.299999999999997
2017-10-06T04:58:41.217Z,22.4
2017-10-06T05:00:41.556Z,21.9
2017-10-06T05:02:41.511Z,22.4
2017-10-06T05:04:41.655Z,21.9
2017-10-06T05:06:41.790Z,21.9
2017-10-06T05:08:41.905Z,21.9
2017-10-06T05:10:42.009Z,21.9
2017-10-06T05:12:42.479Z,21.9
2017-10-06T05:14:42.356Z,21.9
2017-10-06T05:16:42.449Z,21.9
2017-10-06T05:18:42.655Z,21.9
2017-10-06T05:20:42.749Z,21.9
2017-10-06T05:22:42.878Z,21.9
2017-10-06T05:24:43.040Z,21.9
2017-10-06T05:26:43.211Z,21.9
2017-10-06T05:28:43.340Z,21.9
2017-10-06T05:30:43.462Z,21.9
2017-10-06T05:32:43.600Z,20.799999999999997
2017-10-06T05:34:43.703Z,21.299999999999997
2017-10-06T05:36:43.878Z,21.9
2017-10-06T05:38:44.018Z,21.299999999999997
2017-10-06T05:40:44.186Z,21.9
2017-10-06T05:42:44.455Z,21.9
2017-10-06T05:44:44.489Z,21.299999999999997
2017-10-06T05:46:44.693Z,21.9
2017-10-06T05:48:44.860Z,21.9
2017-10-06T05:50:44.977Z,21.9
2017-10-06T05:52:45.111Z,22.4
2017-10-06T05:54:45.148Z,21.9
2017-10-06T05:56:45.279Z,21.9
2017-10-06T05:58:45.408Z,21.9
2017-10-06T06:00:45.650Z,22.9
2017-10-06T06:02:45.782Z,21.9
2017-10-06T06:04:45.858Z,21.9
2017-10-06T06:06:45.993Z,21.9
2017-10-06T06:08:46.177Z,21.9
2017-10-06T06:10:46.229Z,22.4
2017-10-06T06:12:46.367Z,22.4
2017-10-06T06:14:46.544Z,21.9
2017-10-06T06:16:46.630Z,21.9
2017-10-06T06:18:46.830Z,21.9
2017-10-06T06:20:46.951Z,21.9
2017-10-06T06:22:47.038Z,21.9
2017-10-06T06:24:47.184Z,21.9
2017-10-06T06:26:47.275Z,21.9
2017-10-06T06:28:47.453Z,22.4
2017-10-06T06:30:47.746Z,22.9
2017-10-06T06:32:47.740Z,22.4
2017-10-06T06:34:47.864Z,22.4
2017-10-06T06:36:48.032Z,21.9
2017-10-06T06:38:48.129Z,22.4
2017-10-06T06:40:48.255Z,21.9
2017-10-06T06:42:48.490Z,21.9
2017-10-06T06:44:48.581Z,22.9
2017-10-06T06:46:48.693Z,22.4
2017-10-06T06:48:48.809Z,22.9
2017-10-06T06:50:49.115Z,22.4
2017-10-06T06:52:49.112Z,21.9
2017-10-06T06:54:49.168Z,22.9
2017-10-06T06:56:49.443Z,22.9
2017-10-06T06:58:49.440Z,22.9
2017-10-06T07:00:49.540Z,22.9
2017-10-06T07:02:49.722Z,22.9
2017-10-06T07:04:49.821Z,23.5
2017-10-06T07:06:49.937Z,22.9
2017-10-06T07:08:50.076Z,22.9
2017-10-06T07:10:50.182Z,22.9
2017-10-06T07:12:50.291Z,23.5
2017-10-06T07:14:50.440Z,22.9
2017-10-06T07:16:50.530Z,22.9
2017-10-06T07:18:50.718Z,22.9
2017-10-06T07:20:50.850Z,23.5
2017-10-06T07:22:50.987Z,22.9
2017-10-06T07:24:51.108Z,22.9
2017-10-06T07:26:51.275Z,22.9
2017-10-06T07:28:51.427Z,23.5
2017-10-06T07:30:51.558Z,22.9
2017-10-06T07:32:51.735Z,22.9
2017-10-06T07:34:52.080Z,22.9
2017-10-06T07:36:52.060Z,22.9
2017-10-06T07:38:52.248Z,22.9
2017-10-06T07:40:52.267Z,22.9
2017-10-06T07:42:52.372Z,22.9
2017-10-06T07:44:52.507Z,22.9
2017-10-06T07:46:52.684Z,22.9
2017-10-06T07:48:52.766Z,22.9
2017-10-06T07:50:52.960Z,22.4
2017-10-06T07:52:53.042Z,23.5
2017-10-06T07:54:53.165Z,23.5
2017-10-06T07:56:53.251Z,22.9
2017-10-06T07:58:53.377Z,22.9
2017-10-06T08:00:53.521Z,22.9
2017-10-06T08:02:53.725Z,22.9
2017-10-06T08:04:53.723Z,23.5
2017-10-06T08:06:53.961Z,22.9
2017-10-06T08:08:54.127Z,23.5
2017-10-06T08:10:54.253Z,23.5
2017-10-06T08:12:54.342Z,23.5
2017-10-06T08:14:54.469Z,23.5
2017-10-06T08:16:54.656Z,22.9
2017-10-06T08:18:54.742Z,22.9
2017-10-06T08:20:54.879Z,23.5
2017-10-06T08:22:55.061Z,23.5
2017-10-06T08:24:55.083Z,23.5
2017-10-06T08:26:55.254Z,24
2017-10-06T08:28:55.410Z,23.5
2017-10-06T08:30:55.464Z,24
2017-10-06T08:32:55.629Z,22.9
2017-10-06T08:34:55.758Z,24
2017-10-06T08:36:55.842Z,23.5
2017-10-06T08:38:57.370Z,23.5
2017-10-06T08:40:56.149Z,23.5
2017-10-06T08:42:56.213Z,23.5
2017-10-06T08:44:56.542Z,24
2017-10-06T08:46:56.493Z,24
2017-10-06T08:48:56.749Z,24
2017-10-06T08:50:56.853Z,23.5
2017-10-06T08:52:57.012Z,23.5
2017-10-06T08:54:57.141Z,24
2017-10-06T08:56:57.438Z,24
2017-10-06T08:58:57.366Z,24
2017-10-06T09:00:57.686Z,24
2017-10-06T09:02:57.846Z,24
2017-10-06T09:04:57.950Z,24
2017-10-06T09:06:58.115Z,24
2017-10-06T09:08:58.242Z,23.5
2017-10-06T09:10:58.442Z,24.5
2017-10-06T09:12:58.913Z,24
2017-10-06T09:14:58.696Z,23.5
2017-10-06T09:16:58.872Z,24
2017-10-06T09:18:58.960Z,24
2017-10-06T09:20:59.119Z,24
2017-10-06T09:22:59.275Z,24
2017-10-06T09:24:59.365Z,24
2017-10-06T09:26:59.530Z,23.5
2017-10-06T09:28:59.690Z,24
2017-10-06T09:30:59.800Z,23.5
2017-10-06T09:32:59.932Z,23.5
2017-10-06T09:35:00.103Z,24
2017-10-06T09:37:01.249Z,24.5
2017-10-06T09:39:00.334Z,24
2017-10-06T09:41:00.426Z,24.5
2017-10-06T09:43:00.540Z,24
2017-10-06T09:45:00.780Z,24
2017-10-06T09:47:00.848Z,24
2017-10-06T09:49:01.209Z,24
2017-10-06T09:51:01.644Z,24
2017-10-06T09:53:02.152Z,24
2017-10-06T09:55:01.947Z,24.5
2017-10-06T09:57:02.116Z,24.5
2017-10-06T09:59:02.298Z,24.5
2017-10-06T10:01:02.528Z,24
2017-10-06T10:03:02.885Z,24.5
2017-10-06T10:05:02.961Z,24.5
2017-10-06T10:07:03.104Z,24
2017-10-06T10:09:03.293Z,24.5
2017-10-06T10:11:03.409Z,24.5
2017-10-06T10:13:03.546Z,25.1
2017-10-06T10:15:03.692Z,24.5
2017-10-06T10:17:03.986Z,24.5
2017-10-06T10:19:04.085Z,24.5
2017-10-06T10:21:04.187Z,24.5
2017-10-06T10:23:04.377Z,24
2017-10-06T10:25:04.547Z,24.5
2017-10-06T10:27:04.602Z,25.1
2017-10-06T10:29:04.799Z,24
2017-10-06T10:31:04.884Z,24.5
2017-10-06T10:33:05.075Z,24.5
2017-10-06T10:35:05.341Z,24.5
2017-10-06T10:37:05.335Z,24
2017-10-06T10:39:05.515Z,24.5
2017-10-06T10:41:05.598Z,24
2017-10-06T10:43:05.752Z,24
2017-10-06T10:45:05.852Z,25.1
2017-10-06T10:47:05.959Z,24
2017-10-06T10:49:06.049Z,24
2017-10-06T10:51:06.234Z,24
2017-10-06T10:53:06.318Z,24
2017-10-06T10:55:06.449Z,24.5
2017-10-06T10:57:06.587Z,24
2017-10-06T10:59:06.710Z,24.5
2017-10-06T11:01:06.955Z,24.5
2017-10-06T11:03:07.055Z,24.5
2017-10-06T11:05:07.178Z,24
2017-10-06T11:07:07.463Z,24.5
2017-10-06T11:09:07.498Z,24.5
2017-10-06T11:11:07.626Z,25.1
2017-10-06T11:13:07.781Z,24.5
2017-10-06T11:15:07.926Z,24.5
2017-10-06T11:17:08.044Z,24.5
2017-10-06T11:19:08.222Z,24.5
2017-10-06T11:21:08.288Z,24.5
2017-10-06T11:23:08.546Z,25.1
2017-10-06T11:25:08.718Z,24
2017-10-06T11:27:08.819Z,25.1
2017-10-06T11:29:08.926Z,24.5
2017-10-06T11:31:09.109Z,25.1
2017-10-06T11:33:09.394Z,24.5
2017-10-06T11:35:09.472Z,25.1
2017-10-06T11:37:09.728Z,25.1
2017-10-06T11:39:09.992Z,24.5
2017-10-06T11:41:09.897Z,25.1
2017-10-06T11:43:10.086Z,24.5
2017-10-06T11:45:10.217Z,24
2017-10-06T11:47:10.313Z,25.1
2017-10-06T11:49:10.497Z,25.1
2017-10-06T11:51:10.577Z,25.1
2017-10-06T11:53:10.708Z,25.1
2017-10-06T11:55:10.840Z,24.5
2017-10-06T11:57:10.961Z,24.5
2017-10-06T11:59:11.116Z,25.1
2017-10-06T12:01:11.202Z,25.1
2017-10-06T12:03:11.391Z,25.1
2017-10-06T12:05:11.480Z,25.1
2017-10-06T12:07:11.587Z,24.5
2017-10-06T12:09:11.912Z,25.1
2017-10-06T12:11:11.943Z,24.5
2017-10-06T12:13:12.024Z,25.1
2017-10-06T12:15:12.177Z,25.1
2017-10-06T12:17:12.304Z,25.1
2017-10-06T12:19:12.415Z,25.1
2017-10-06T12:21:12.690Z,25.1
2017-10-06T12:23:17.664Z,25.1
2017-10-06T12:25:12.778Z,25.1
2017-10-06T12:27:12.915Z,25.1
2017-10-06T12:29:13.027Z,25.1
2017-10-06T12:31:13.141Z,25.1
2017-10-06T12:33:13.316Z,25.1
2017-10-06T12:35:13.567Z,25.1
2017-10-06T12:37:13.631Z,25.1
2017-10-06T12:39:13.753Z,25.6
2017-10-06T12:41:13.880Z,25.1
2017-10-06T12:43:14.038Z,25.1
2017-10-06T12:45:14.189Z,25.1
2017-10-06T12:47:14.478Z,25.1
2017-10-06T12:49:14.626Z,25.1
2017-10-06T12:51:14.704Z,25.1
2017-10-06T12:53:14.939Z,25.1
2017-10-06T12:55:14.962Z,25.1
2017-10-06T12:57:15.138Z,25.1
2017-10-06T12:59:15.266Z,25.1
2017-10-06T13:01:15.404Z,25.1
2017-10-06T13:03:15.531Z,25.1
2017-10-06T13:05:15.849Z,25.1
2017-10-06T13:07:15.886Z,25.1
2017-10-06T13:09:16.031Z,25.1
2017-10-06T13:11:16.135Z,25.1
2017-10-06T13:13:16.228Z,25.1
2017-10-06T13:15:16.383Z,25.1
2017-10-06T13:17:16.526Z,25.1
2017-10-06T13:19:16.607Z,25.1
2017-10-06T13:21:16.755Z,25.1
2017-10-06T13:23:16.969Z,25.1
2017-10-06T13:25:17.062Z,25.1
2017-10-06T13:27:18.013Z,25.1
2017-10-06T13:29:17.556Z,25.1
2017-10-06T13:31:17.530Z,24.5
2017-10-06T13:33:17.704Z,25.1
2017-10-06T13:35:17.827Z,25.1
2017-10-06T13:37:17.897Z,25.1
2017-10-06T13:39:18.040Z,25.1
2017-10-06T13:41:18.179Z,25.1
2017-10-06T13:43:18.364Z,25.1
2017-10-06T13:45:18.477Z,25.1
2017-10-06T13:47:18.570Z,25.6
2017-10-06T13:49:18.739Z,25.1
2017-10-06T13:51:18.829Z,25.1
2017-10-06T13:53:18.995Z,25.1
2017-10-06T13:55:19.102Z,25.1
2017-10-06T13:57:19.215Z,25.1
2017-10-06T13:59:19.383Z,25.1
2017-10-06T14:01:19.514Z,25.1
2017-10-06T14:03:19.613Z,25.1
2017-10-06T14:05:19.818Z,25.1
2017-10-06T14:07:19.924Z,25.1
2017-10-06T14:09:20.042Z,25.1
2017-10-06T14:11:20.189Z,25.1
2017-10-06T14:13:20.472Z,25.1
2017-10-06T14:15:20.629Z,25.1
2017-10-06T14:17:20.771Z,25.1
2017-10-06T14:19:20.872Z,25.1
2017-10-06T14:21:21.006Z,25.1
2017-10-06T14:23:21.149Z,25.1
2017-10-06T14:25:21.282Z,25.1
2017-10-06T14:27:21.398Z,25.1
2017-10-06T14:29:21.546Z,24.5
2017-10-06T14:31:21.693Z,25.1
2017-10-06T14:33:21.783Z,25.1
2017-10-06T14:35:21.966Z,25.1
2017-10-06T14:37:22.052Z,25.1
2017-10-06T14:39:22.223Z,25.1
2017-10-06T14:41:22.349Z,25.1
2017-10-06T14:43:22.480Z,25.1
2017-10-06T14:45:22.630Z,25.1
2017-10-06T14:47:22.968Z,25.1
2017-10-06T14:49:22.919Z,25.1
2017-10-06T14:51:23.059Z,25.1
2017-10-06T14:53:23.261Z,25.1
2017-10-06T14:55:23.417Z,25.1
2017-10-06T14:57:23.625Z,25.1
2017-10-06T14:59:23.679Z,25.1
2017-10-06T15:01:23.800Z,25.1
2017-10-06T15:03:23.916Z,25.1
2017-10-06T15:05:24.061Z,25.1
2017-10-06T15:07:24.180Z,25.1
2017-10-06T15:09:24.302Z,25.6
2017-10-06T15:11:24.422Z,24.5
2017-10-06T15:13:24.556Z,25.1
2017-10-06T15:15:24.672Z,25.1
2017-10-06T15:17:24.799Z,25.1
2017-10-06T15:19:24.921Z,25.1
2017-10-06T15:21:25.044Z,24.5
2017-10-06T15:23:30.214Z,24.5
2017-10-06T15:25:25.296Z,25.1
2017-10-06T15:27:25.544Z,24.5
2017-10-06T15:29:25.596Z,25.1
2017-10-06T15:31:25.711Z,24
2017-10-06T15:33:25.912Z,25.1
2017-10-06T15:35:25.963Z,25.1
2017-10-06T15:37:26.070Z,25.1
2017-10-06T15:39:26.228Z,24.5
2017-10-06T15:41:26.333Z,24.5
2017-10-06T15:43:26.478Z,24
2017-10-06T15:45:26.595Z,25.1
2017-10-06T15:47:26.913Z,25.1
2017-10-06T15:49:27.086Z,25.1
2017-10-06T15:51:27.109Z,24
2017-10-06T15:53:27.231Z,24
2017-10-06T15:55:27.366Z,24
2017-10-06T15:57:27.446Z,24
2017-10-06T15:59:27.678Z,24.5
2017-10-06T16:01:27.824Z,23.5
2017-10-06T16:03:27.950Z,24
2017-10-06T16:05:28.074Z,24
2017-10-06T16:07:28.196Z,24
2017-10-06T16:09:28.331Z,24
2017-10-06T16:11:28.470Z,23.5
2017-10-06T16:13:28.702Z,23.5
2017-10-06T16:15:28.778Z,24
2017-10-06T16:17:28.901Z,24
2017-10-06T16:19:29.162Z,23.5
2017-10-06T16:21:29.251Z,23.5
2017-10-06T16:23:29.285Z,23.5
2017-10-06T16:25:29.373Z,22.9
2017-10-06T16:27:29.514Z,23.5
2017-10-06T16:29:29.651Z,22.9
2017-10-06T16:31:29.754Z,22.9
2017-10-06T16:33:29.883Z,24
2017-10-06T16:35:30.020Z,22.9
2017-10-06T16:37:30.153Z,22.9
2017-10-06T16:39:30.316Z,22.9
2017-10-06T16:41:30.418Z,23.5
2017-10-06T16:43:30.533Z,23.5
2017-10-06T16:45:30.646Z,23.5
2017-10-06T16:47:30.813Z,22.9
2017-10-06T16:49:30.975Z,22.9
2017-10-06T16:51:31.109Z,22.9
2017-10-06T16:53:31.261Z,22.9
2017-10-06T16:55:31.388Z,22.9
2017-10-06T16:57:31.485Z,23.5
2017-10-06T16:59:31.620Z,23.5
2017-10-06T17:01:31.767Z,23.5
2017-10-06T17:03:32.022Z,22.9
2017-10-06T17:05:32.190Z,23.5
2017-10-06T17:07:32.320Z,22.9
2017-10-06T17:09:32.440Z,22.9
2017-10-06T17:11:32.608Z,22.9
2017-10-06T17:13:32.710Z,22.9
2017-10-06T17:15:32.812Z,22.9
2017-10-06T17:17:33.182Z,22.9
2017-10-06T17:19:33.280Z,22.9
2017-10-06T17:21:33.379Z,22.4
2017-10-06T17:23:33.506Z,22.9
2017-10-06T17:25:33.608Z,22.9
2017-10-06T17:27:33.801Z,22.9
2017-10-06T17:29:33.996Z,22.9
2017-10-06T17:31:34.067Z,22.4
2017-10-06T17:33:34.214Z,22.9
2017-10-06T17:35:34.485Z,22.9
2017-10-06T17:37:34.456Z,22.4
2017-10-06T17:39:34.554Z,21.9
2017-10-06T17:41:34.682Z,22.4
2017-10-06T17:43:34.789Z,22.9
2017-10-06T17:45:34.954Z,22.9
2017-10-06T17:47:35.078Z,22.9
2017-10-06T17:49:35.330Z,21.9
2017-10-06T17:51:35.295Z,22.9
2017-10-06T17:53:35.480Z,22.4
2017-10-06T17:55:35.564Z,22.9
2017-10-06T17:57:35.700Z,22.4
2017-10-06T17:59:35.849Z,22.9
2017-10-06T18:01:35.970Z,22.4
2017-10-06T18:03:36.076Z,22.4
2017-10-06T18:05:36.241Z,21.9
2017-10-06T18:07:36.493Z,21.9
2017-10-06T18:09:36.574Z,22.4
2017-10-06T18:11:36.714Z,22.9
2017-10-06T18:13:36.910Z,22.9
2017-10-06T18:15:37.012Z,22.9
2017-10-06T18:17:37.177Z,22.9
2017-10-06T18:19:37.380Z,21.9
2017-10-06T18:21:37.463Z,21.9
2017-10-06T18:23:37.600Z,22.9
2017-10-06T18:25:37.818Z,21.9
2017-10-06T18:27:38.132Z,22.9
2017-10-06T18:29:38.296Z,22.9
2017-10-06T18:31:38.412Z,21.9
2017-10-06T18:33:38.537Z,22.4
2017-10-06T18:35:38.666Z,21.9
2017-10-06T18:37:38.899Z,21.9
2017-10-06T18:39:38.952Z,21.9
2017-10-06T18:41:39.083Z,21.9
2017-10-06T18:43:39.234Z,22.9
2017-10-06T18:45:39.397Z,21.9
2017-10-06T18:47:39.494Z,21.9
2017-10-06T18:49:39.632Z,21.9
2017-10-06T18:51:39.763Z,21.9
2017-10-06T18:53:39.919Z,22.9
2017-10-06T18:55:40.044Z,21.9
2017-10-06T18:57:40.229Z,22.4
2017-10-06T18:59:40.367Z,21.9
2017-10-06T19:01:40.616Z,21.9
2017-10-06T19:03:40.638Z,22.4
2017-10-06T19:05:40.984Z,22.4
2017-10-06T19:07:40.910Z,21.9
2017-10-06T19:09:41.051Z,22.4
2017-10-06T19:11:41.268Z,21.9
2017-10-06T19:13:41.520Z,21.9
2017-10-06T19:15:41.605Z,22.4
2017-10-06T19:17:42.007Z,22.4
2017-10-06T19:19:42.260Z,22.4
2017-10-06T19:21:42.431Z,21.9
2017-10-06T19:23:42.559Z,21.9
2017-10-06T19:25:42.887Z,21.9
2017-10-06T19:27:42.976Z,21.9
2017-10-06T19:29:43.087Z,22.4
2017-10-06T19:31:43.188Z,21.9
2017-10-06T19:33:43.334Z,21.9
2017-10-06T19:35:43.410Z,21.9
2017-10-06T19:37:43.560Z,21.9
2017-10-06T19:39:43.653Z,21.9
2017-10-06T19:41:43.765Z,21.9
2017-10-06T19:43:43.923Z,21.9
2017-10-06T19:45:44.038Z,21.9
2017-10-06T19:47:44.139Z,21.9
2017-10-06T19:49:44.281Z,21.9
2017-10-06T19:51:44.408Z,22.9
2017-10-06T19:53:44.519Z,21.9
2017-10-06T19:55:44.665Z,21.9
2017-10-06T19:57:44.763Z,22.4
2017-10-06T19:59:44.891Z,21.9
2017-10-06T20:01:45.038Z,21.9
2017-10-06T20:03:45.276Z,21.9
2017-10-06T20:05:45.265Z,21.9
2017-10-06T20:07:45.410Z,21.9
2017-10-06T20:09:45.513Z,21.9
2017-10-06T20:11:45.631Z,21.299999999999997
2017-10-06T20:13:45.763Z,21.299999999999997
2017-10-06T20:15:45.872Z,21.9
2017-10-06T20:17:46.018Z,21.9
2017-10-06T20:19:46.212Z,21.9
2017-10-06T20:21:46.401Z,21.299999999999997
2017-10-06T20:23:46.509Z,21.299999999999997
2017-10-06T20:25:46.675Z,21.299999999999997
2017-10-06T20:27:46.824Z,21.9
2017-10-06T20:29:46.979Z,20.799999999999997
2017-10-06T20:31:47.150Z,21.299999999999997
2017-10-06T20:33:47.261Z,21.299999999999997
2017-10-06T20:35:47.369Z,21.9
2017-10-06T20:37:47.588Z,20.799999999999997
2017-10-06T20:39:47.664Z,20.799999999999997
2017-10-06T20:41:47.774Z,21.299999999999997
2017-10-06T20:43:48.241Z,21.9
2017-10-06T20:45:48.064Z,21.9
2017-10-06T20:47:48.337Z,21.299999999999997
2017-10-06T20:49:48.333Z,21.299999999999997
2017-10-06T20:51:48.456Z,21.299999999999997
2017-10-06T20:53:48.778Z,20.799999999999997
2017-10-06T20:55:48.716Z,21.299999999999997
2017-10-06T20:57:48.851Z,21.299999999999997
2017-10-06T20:59:49.200Z,21.9
2017-10-06T21:01:49.330Z,21.299999999999997
2017-10-06T21:03:50.251Z,21.299999999999997
2017-10-06T21:05:49.557Z,21.9
2017-10-06T21:07:49.693Z,21.9
2017-10-06T21:09:49.851Z,21.9
2017-10-06T21:11:49.928Z,21.299999999999997
2017-10-06T21:13:50.058Z,21.299999999999997
2017-10-06T21:15:50.202Z,20.799999999999997
2017-10-06T21:17:50.464Z,21.299999999999997
2017-10-06T21:19:50.496Z,20.799999999999997
2017-10-06T21:21:50.571Z,21.299999999999997
2017-10-06T21:23:50.722Z,21.299999999999997
2017-10-06T21:25:50.844Z,21.9
2017-10-06T21:27:50.931Z,21.299999999999997
2017-10-06T21:29:51.077Z,20.799999999999997
2017-10-06T21:31:51.199Z,21.299999999999997
2017-10-06T21:33:51.350Z,21.299999999999997
2017-10-06T21:35:51.415Z,20.799999999999997
2017-10-06T21:37:51.567Z,21.299999999999997
2017-10-06T21:39:51.703Z,21.299999999999997
2017-10-06T21:41:51.844Z,21.299999999999997
2017-10-06T21:43:51.934Z,21.299999999999997
2017-10-06T21:45:52.100Z,21.299999999999997
2017-10-06T21:47:52.199Z,21.299999999999997
2017-10-06T21:49:52.354Z,20.799999999999997
2017-10-06T21:51:52.469Z,21.9
2017-10-06T21:53:52.588Z,20.799999999999997
2017-10-06T21:55:52.751Z,20.799999999999997
2017-10-06T21:57:52.938Z,20.799999999999997
2017-10-06T21:59:52.931Z,21.299999999999997
2017-10-06T22:01:53.094Z,20.799999999999997
2017-10-06T22:03:53.229Z,21.299999999999997
2017-10-06T22:05:53.340Z,20.799999999999997
2017-10-06T22:07:53.492Z,21.299999999999997
2017-10-06T22:09:53.579Z,20.799999999999997
2017-10-06T22:11:53.696Z,20.799999999999997
2017-10-06T22:13:53.811Z,20.799999999999997
2017-10-06T22:15:54.132Z,20.799999999999997
2017-10-06T22:17:54.092Z,20.799999999999997
2017-10-06T22:19:54.193Z,20.799999999999997
2017-10-06T22:21:54.342Z,21.299999999999997
2017-10-06T22:23:54.464Z,20.799999999999997
2017-10-06T22:25:54.718Z,21.299999999999997
2017-10-06T22:27:54.851Z,21.299999999999997
2017-10-06T22:29:54.995Z,21.299999999999997
2017-10-06T22:31:55.123Z,20.799999999999997
2017-10-06T22:33:55.265Z,21.9
2017-10-06T22:35:55.567Z,20.799999999999997
2017-10-06T22:37:55.673Z,20.799999999999997
2017-10-06T22:39:55.774Z,20.799999999999997
2017-10-06T22:41:56.016Z,21.299999999999997
2017-10-06T22:43:56.127Z,20.799999999999997
2017-10-06T22:45:56.253Z,20.799999999999997
2017-10-06T22:47:57.636Z,20.799999999999997
2017-10-06T22:49:56.508Z,20.799999999999997
2017-10-06T22:51:56.729Z,21.299999999999997
2017-10-06T22:53:56.842Z,21.299999999999997
2017-10-06T22:55:56.927Z,20.799999999999997
2017-10-06T22:57:57.730Z,20.799999999999997
2017-10-06T22:59:57.217Z,21.299999999999997
2017-10-06T23:01:57.356Z,20.799999999999997
2017-10-06T23:03:57.475Z,20.799999999999997
2017-10-06T23:05:57.771Z,20.799999999999997
2017-10-06T23:07:57.921Z,20.799999999999997
2017-10-06T23:09:58.060Z,20.200000000000003
2017-10-06T23:11:58.283Z,20.799999999999997
2017-10-06T23:13:58.323Z,20.799999999999997
2017-10-06T23:15:58.506Z,20.799999999999997
2017-10-06T23:17:58.684Z,20.799999999999997
2017-10-06T23:19:58.913Z,20.799999999999997
2017-10-06T23:21:59.000Z,20.799999999999997
2017-10-06T23:23:59.168Z,20.799999999999997
2017-10-06T23:25:59.279Z,20.799999999999997
2017-10-06T23:27:59.457Z,21.299999999999997
2017-10-06T23:29:59.738Z,20.799999999999997
2017-10-06T23:31:59.830Z,20.799999999999997
2017-10-06T23:33:59.904Z,20.799999999999997
2017-10-06T23:36:00.066Z,20.799999999999997
2017-10-06T23:38:00.213Z,20.799999999999997
2017-10-06T23:40:00.447Z,20.799999999999997
2017-10-06T23:42:00.788Z,20.799999999999997
2017-10-06T23:44:00.887Z,20.799999999999997
2017-10-06T23:46:01.013Z,20.799999999999997
2017-10-06T23:48:01.208Z,20.799999999999997
2017-10-06T23:50:01.661Z,20.799999999999997
2017-10-06T23:52:01.781Z,20.799999999999997
2017-10-06T23:54:01.951Z,20.799999999999997
2017-10-06T23:56:02.467Z,20.200000000000003
2017-10-06T23:58:02.693Z,20.799999999999997
